createdAt,value
2022-10-01T00:00:32.383Z,88.84
2022-10-01T00:01:32.736Z,89.97
2022-10-01T00:02:32.422Z,90.08
2022-10-01T00:03:32.329Z,89.94
2022-10-01T00:04:32.332Z,88.29
2022-10-01T00:05:32.330Z,87.98
2022-10-01T00:06:32.359Z,88.08
2022-10-01T00:07:32.352Z,89.11
2022-10-01T00:08:32.338Z,88.90
2022-10-01T00:09:32.308Z,87.77
2022-10-01T00:10:32.313Z,88.08
2022-10-01T00:11:32.620Z,88.64
2022-10-01T00:12:32.296Z,89.05
2022-10-01T00:13:32.294Z,89.11
2022-10-01T00:14:32.329Z,88.49
2022-10-01T00:15:32.282Z,88.49
2022-10-01T00:16:32.336Z,88.59
2022-10-01T00:17:32.291Z,90.08
2022-10-01T00:18:32.303Z,89.67
2022-10-01T00:19:32.265Z,89.56
2022-10-01T00:20:32.399Z,91.00
2022-10-01T00:21:32.599Z,90.59
2022-10-01T00:22:32.236Z,89.77
2022-10-01T00:23:32.270Z,90.08
2022-10-01T00:24:32.238Z,90.08
2022-10-01T00:25:32.240Z,90.28
2022-10-01T00:26:32.234Z,90.18
2022-10-01T00:27:32.230Z,89.67
2022-10-01T00:28:32.243Z,90.14
2022-10-01T00:29:32.247Z,89.87
2022-10-01T00:30:32.205Z,90.39
2022-10-01T00:31:32.674Z,91.11
2022-10-01T00:32:32.226Z,91.62
2022-10-01T00:33:32.207Z,91.78
2022-10-01T00:34:32.227Z,91.74
2022-10-01T00:35:32.189Z,91.02
2022-10-01T00:36:32.199Z,90.81
2022-10-01T00:37:32.191Z,90.81
2022-10-01T00:38:32.186Z,90.88
2022-10-01T00:39:32.201Z,91.08
2022-10-01T00:40:32.173Z,91.08
2022-10-01T00:41:32.709Z,91.55
2022-10-01T00:42:32.162Z,91.25
2022-10-01T00:43:32.147Z,91.04
2022-10-01T00:44:32.188Z,91.04
2022-10-01T00:45:32.212Z,90.83
2022-10-01T00:46:32.166Z,90.48
2022-10-01T00:47:32.125Z,90.38
2022-10-01T00:48:32.126Z,90.08
2022-10-01T00:49:32.136Z,89.87
2022-10-01T00:50:32.120Z,89.83
2022-10-01T00:51:32.548Z,89.42
2022-10-01T00:52:32.105Z,89.42
2022-10-01T00:53:32.114Z,89.31
2022-10-01T00:54:32.118Z,88.80
2022-10-01T00:55:32.086Z,88.70
2022-10-01T00:56:32.131Z,88.70
2022-10-01T00:57:32.099Z,88.45
2022-10-01T00:58:32.111Z,87.67
2022-10-01T00:59:32.090Z,87.46
2022-10-01T01:00:32.091Z,87.26
2022-10-01T01:01:32.327Z,87.51
2022-10-01T01:02:32.118Z,87.85
2022-10-01T01:03:32.062Z,87.34
2022-10-01T01:04:32.055Z,87.75
2022-10-01T01:05:32.063Z,88.12
2022-10-01T01:06:32.056Z,88.37
2022-10-01T01:07:32.068Z,88.17
2022-10-01T01:08:32.026Z,88.68
2022-10-01T01:09:32.035Z,89.44
2022-10-01T01:10:32.034Z,89.40
2022-10-01T01:11:32.332Z,89.60
2022-10-01T01:12:32.044Z,89.95
2022-10-01T01:13:32.017Z,89.40
2022-10-01T01:14:32.036Z,89.60
2022-10-01T01:15:32.022Z,89.09
2022-10-01T01:16:31.999Z,88.89
2022-10-01T01:17:32.003Z,89.40
2022-10-01T01:18:32.020Z,89.04
2022-10-01T01:19:32.012Z,89.87
2022-10-01T01:20:31.990Z,88.95
2022-10-01T01:21:32.288Z,89.81
2022-10-01T01:22:31.995Z,89.15
2022-10-01T01:23:31.966Z,88.43
2022-10-01T01:24:31.992Z,88.43
2022-10-01T01:25:31.995Z,88.43
2022-10-01T01:26:31.995Z,88.64
2022-10-01T01:27:32.020Z,88.43
2022-10-01T01:28:31.945Z,88.84
2022-10-01T01:29:31.990Z,88.43
2022-10-01T01:30:31.925Z,89.15
2022-10-01T01:31:32.360Z,88.95
2022-10-01T01:32:31.933Z,89.76
2022-10-01T01:33:31.940Z,89.76
2022-10-01T01:34:31.941Z,88.84
2022-10-01T01:35:31.910Z,89.25
2022-10-01T01:36:31.952Z,89.62
2022-10-01T01:37:31.951Z,89.62
2022-10-01T01:38:31.895Z,89.83
2022-10-01T01:39:31.896Z,89.01
2022-10-01T01:40:31.884Z,89.42
2022-10-01T01:41:32.237Z,88.39
2022-10-01T01:42:31.883Z,88.35
2022-10-01T01:43:31.876Z,87.84
2022-10-01T01:44:31.882Z,88.14
2022-10-01T01:45:31.888Z,88.00
2022-10-01T01:46:31.884Z,87.38
2022-10-01T01:47:31.859Z,87.38
2022-10-01T01:48:31.878Z,87.43
2022-10-01T01:49:31.880Z,88.00
2022-10-01T01:50:31.852Z,88.14
2022-10-01T01:51:32.159Z,87.28
2022-10-01T01:52:31.836Z,87.38
2022-10-01T01:53:31.875Z,87.94
2022-10-01T01:54:31.809Z,87.43
2022-10-01T01:55:31.863Z,87.63
2022-10-01T01:56:31.826Z,88.14
2022-10-01T01:57:31.821Z,88.14
2022-10-01T01:58:31.825Z,87.90
2022-10-01T01:59:31.794Z,88.14
2022-10-01T02:00:31.786Z,87.63
2022-10-01T02:01:32.162Z,87.43
2022-10-01T02:02:31.850Z,87.73
2022-10-01T02:03:31.802Z,87.90
2022-10-01T02:04:31.794Z,87.49
2022-10-01T02:05:31.798Z,87.59
2022-10-01T02:06:31.782Z,87.28
2022-10-01T02:07:31.766Z,87.38
2022-10-01T02:08:32.781Z,87.38
2022-10-01T02:09:31.770Z,87.49
2022-10-01T02:10:31.780Z,87.90
2022-10-01T02:11:32.039Z,87.38
2022-10-01T02:12:31.731Z,87.28
2022-10-01T02:13:31.738Z,87.59
2022-10-01T02:14:31.735Z,87.70
2022-10-01T02:15:31.737Z,87.24
2022-10-01T02:16:31.714Z,87.38
2022-10-01T02:17:31.740Z,88.21
2022-10-01T02:18:31.734Z,87.90
2022-10-01T02:19:31.737Z,88.00
2022-10-01T02:20:31.693Z,88.31
2022-10-01T02:21:32.068Z,87.70
2022-10-01T02:22:31.703Z,87.59
2022-10-01T02:23:31.702Z,87.55
2022-10-01T02:24:31.692Z,87.70
2022-10-01T02:25:31.678Z,87.90
2022-10-01T02:26:31.667Z,89.33
2022-10-01T02:27:31.726Z,89.17
2022-10-01T02:28:31.765Z,88.41
2022-10-01T02:29:31.678Z,89.03
2022-10-01T02:30:31.645Z,88.31
2022-10-01T02:31:31.981Z,88.10
2022-10-01T02:32:31.674Z,87.90
2022-10-01T02:33:31.651Z,87.38
2022-10-01T02:34:31.677Z,88.00
2022-10-01T02:35:31.675Z,88.72
2022-10-01T02:36:31.674Z,89.23
2022-10-01T02:37:31.639Z,88.82
2022-10-01T02:38:31.665Z,88.82
2022-10-01T02:39:31.627Z,89.33
2022-10-01T02:40:31.638Z,89.33
2022-10-01T02:41:32.036Z,89.23
2022-10-01T02:42:31.587Z,88.00
2022-10-01T02:43:31.598Z,87.90
2022-10-01T02:44:31.583Z,87.85
2022-10-01T02:45:31.641Z,87.34
2022-10-01T02:46:31.618Z,87.34
2022-10-01T02:47:31.614Z,87.65
2022-10-01T02:48:31.566Z,87.65
2022-10-01T02:49:31.581Z,87.85
2022-10-01T02:50:31.571Z,87.71
2022-10-01T02:51:31.839Z,87.45
2022-10-01T02:52:31.584Z,87.14
2022-10-01T02:53:31.545Z,87.10
2022-10-01T02:54:31.541Z,86.38
2022-10-01T02:55:31.558Z,86.48
2022-10-01T02:56:31.532Z,87.10
2022-10-01T02:57:31.565Z,86.69
2022-10-01T02:58:31.526Z,86.69
2022-10-01T02:59:31.564Z,85.31
2022-10-01T03:00:31.518Z,85.56
2022-10-01T03:01:31.699Z,85.63
2022-10-01T03:02:31.739Z,85.42
2022-10-01T03:03:31.506Z,85.42
2022-10-01T03:04:31.520Z,85.42
2022-10-01T03:05:31.513Z,85.11
2022-10-01T03:06:31.487Z,85.63
2022-10-01T03:07:31.482Z,85.42
2022-10-01T03:08:31.481Z,85.31
2022-10-01T03:09:31.498Z,85.22
2022-10-01T03:10:31.487Z,85.11
2022-10-01T03:11:31.953Z,85.11
2022-10-01T03:12:31.451Z,85.11
2022-10-01T03:13:31.442Z,85.11
2022-10-01T03:14:31.472Z,84.80
2022-10-01T03:15:31.443Z,84.80
2022-10-01T03:16:31.445Z,84.46
2022-10-01T03:17:31.433Z,84.46
2022-10-01T03:18:31.428Z,85.01
2022-10-01T03:19:31.452Z,84.77
2022-10-01T03:20:31.419Z,85.07
2022-10-01T03:21:31.764Z,84.77
2022-10-01T03:22:31.416Z,84.77
2022-10-01T03:23:31.402Z,84.97
2022-10-01T03:24:31.420Z,85.11
2022-10-01T03:25:31.420Z,84.66
2022-10-01T03:26:31.396Z,84.50
2022-10-01T03:27:31.388Z,83.64
2022-10-01T03:28:31.426Z,84.25
2022-10-01T03:29:31.383Z,83.74
2022-10-01T03:30:31.398Z,83.84
2022-10-01T03:31:31.895Z,84.05
2022-10-01T03:32:31.367Z,84.25
2022-10-01T03:33:31.350Z,84.05
2022-10-01T03:34:31.355Z,84.46
2022-10-01T03:35:31.376Z,84.25
2022-10-01T03:36:31.363Z,83.64
2022-10-01T03:37:31.336Z,83.54
2022-10-01T03:38:31.328Z,83.95
2022-10-01T03:39:31.342Z,83.23
2022-10-01T03:40:31.309Z,82.92
2022-10-01T03:41:31.450Z,83.23
2022-10-01T03:42:31.324Z,83.13
2022-10-01T03:43:31.307Z,82.89
2022-10-01T03:44:31.295Z,83.29
2022-10-01T03:45:31.342Z,83.39
2022-10-01T03:46:31.334Z,83.19
2022-10-01T03:47:31.311Z,82.68
2022-10-01T03:48:31.296Z,82.68
2022-10-01T03:49:31.266Z,82.71
2022-10-01T03:50:31.275Z,83.09
2022-10-01T03:51:31.502Z,82.98
2022-10-01T03:52:31.248Z,83.09
2022-10-01T03:53:31.291Z,83.60
2022-10-01T03:54:31.254Z,84.11
2022-10-01T03:55:31.242Z,83.91
2022-10-01T03:56:31.237Z,83.95
2022-10-01T03:57:31.263Z,84.15
2022-10-01T03:58:31.228Z,84.31
2022-10-01T03:59:31.231Z,85.03
2022-10-01T04:00:31.308Z,85.03
2022-10-01T04:01:31.536Z,85.64
2022-10-01T04:02:31.291Z,85.79
2022-10-01T04:03:31.203Z,86.30
2022-10-01T04:04:31.221Z,86.51
2022-10-01T04:05:31.213Z,86.71
2022-10-01T04:06:31.217Z,87.49
2022-10-01T04:07:31.177Z,87.53
2022-10-01T04:08:31.228Z,87.53
2022-10-01T04:09:31.173Z,87.26
2022-10-01T04:10:31.189Z,87.12
2022-10-01T04:11:31.364Z,87.84
2022-10-01T04:12:31.150Z,88.18
2022-10-01T04:13:31.149Z,89.27
2022-10-01T04:14:31.175Z,88.49
2022-10-01T04:15:31.140Z,88.29
2022-10-01T04:16:31.236Z,88.80
2022-10-01T04:17:31.142Z,89.72
2022-10-01T04:18:31.132Z,89.31
2022-10-01T04:19:31.134Z,90.13
2022-10-01T04:20:31.143Z,89.42
2022-10-01T04:21:31.398Z,90.34
2022-10-01T04:22:31.113Z,89.83
2022-10-01T04:23:31.108Z,90.64
2022-10-01T04:24:31.093Z,90.64
2022-10-01T04:25:31.098Z,90.75
2022-10-01T04:26:31.085Z,90.75
2022-10-01T04:27:31.131Z,90.95
2022-10-01T04:28:31.209Z,91.20
2022-10-01T04:29:31.090Z,91.56
2022-10-01T04:30:31.055Z,91.46
2022-10-01T04:31:31.178Z,91.97
2022-10-01T04:32:31.080Z,91.67
2022-10-01T04:33:31.069Z,91.71
2022-10-01T04:34:31.048Z,91.97
2022-10-01T04:35:31.048Z,91.56
2022-10-01T04:36:31.037Z,91.82
2022-10-01T04:37:31.063Z,92.02
2022-10-01T04:38:31.046Z,92.22
2022-10-01T04:39:31.047Z,92.32
2022-10-01T04:40:31.014Z,92.53
2022-10-01T04:41:31.484Z,92.43
2022-10-01T04:42:31.037Z,92.43
2022-10-01T04:43:31.057Z,92.43
2022-10-01T04:44:31.068Z,92.43
2022-10-01T04:45:31.006Z,92.63
2022-10-01T04:46:31.083Z,92.53
2022-10-01T04:47:33.567Z,92.83
2022-10-01T04:48:31.989Z,93.19
2022-10-01T04:49:31.018Z,93.86
2022-10-01T04:50:31.005Z,93.70
2022-10-01T04:51:31.140Z,93.80
2022-10-01T04:52:30.971Z,94.68
2022-10-01T04:53:30.990Z,94.01
2022-10-01T04:54:30.994Z,94.48
2022-10-01T04:55:30.945Z,94.48
2022-10-01T04:56:30.953Z,94.52
2022-10-01T04:57:30.934Z,94.32
2022-10-01T04:58:30.951Z,94.42
2022-10-01T04:59:30.961Z,94.58
2022-10-01T05:00:30.952Z,93.96
2022-10-01T05:01:31.146Z,94.07
2022-10-01T05:02:30.950Z,94.58
2022-10-01T05:03:30.916Z,94.42
2022-10-01T05:04:30.909Z,94.32
2022-10-01T05:05:30.917Z,94.32
2022-10-01T05:06:30.885Z,94.21
2022-10-01T05:07:30.902Z,94.62
2022-10-01T05:08:30.895Z,94.52
2022-10-01T05:09:30.880Z,94.21
2022-10-01T05:10:30.899Z,94.11
2022-10-01T05:11:31.098Z,94.62
2022-10-01T05:12:30.864Z,94.52
2022-10-01T05:13:30.861Z,94.32
2022-10-01T05:14:30.875Z,94.62
2022-10-01T05:15:30.890Z,94.21
2022-10-01T05:16:30.926Z,94.32
2022-10-01T05:17:30.834Z,94.62
2022-10-01T05:18:30.827Z,94.62
2022-10-01T05:19:30.847Z,94.62
2022-10-01T05:20:30.835Z,94.42
2022-10-01T05:21:30.999Z,94.52
2022-10-01T05:22:30.850Z,94.32
2022-10-01T05:23:30.823Z,94.52
2022-10-01T05:24:30.798Z,94.11
2022-10-01T05:25:30.873Z,94.52
2022-10-01T05:26:30.816Z,94.48
2022-10-01T05:27:30.805Z,94.32
2022-10-01T05:28:30.818Z,95.03
2022-10-01T05:29:30.779Z,95.14
2022-10-01T05:30:30.779Z,94.93
2022-10-01T05:31:30.901Z,95.24
2022-10-01T05:32:30.794Z,95.54
2022-10-01T05:33:30.783Z,95.59
2022-10-01T05:34:30.793Z,96.16
2022-10-01T05:35:30.744Z,96.20
2022-10-01T05:36:30.766Z,96.92
2022-10-01T05:37:30.750Z,96.20
2022-10-01T05:38:30.777Z,96.37
2022-10-01T05:39:31.735Z,95.90
2022-10-01T05:40:30.736Z,96.20
2022-10-01T05:41:30.974Z,96.20
2022-10-01T05:42:30.727Z,96.00
2022-10-01T05:43:30.762Z,96.20
2022-10-01T05:44:30.745Z,96.37
2022-10-01T05:45:30.784Z,96.06
2022-10-01T05:46:30.706Z,96.37
2022-10-01T05:47:30.700Z,96.37
2022-10-01T05:48:30.695Z,96.47
2022-10-01T05:49:30.726Z,96.16
2022-10-01T05:50:30.678Z,95.95
2022-10-01T05:51:30.729Z,96.16
2022-10-01T05:52:30.721Z,96.16
2022-10-01T05:53:30.671Z,96.16
2022-10-01T05:54:30.686Z,96.78
2022-10-01T05:55:30.661Z,96.98
2022-10-01T05:56:30.641Z,96.67
2022-10-01T05:57:30.647Z,96.12
2022-10-01T05:58:30.644Z,96.32
2022-10-01T05:59:31.990Z,95.54
2022-10-01T06:00:31.657Z,95.34
2022-10-01T06:01:30.726Z,95.24
2022-10-01T06:02:30.774Z,95.24
2022-10-01T06:03:30.639Z,95.86
2022-10-01T06:04:30.628Z,95.34
2022-10-01T06:05:30.649Z,95.14
2022-10-01T06:06:30.596Z,95.29
2022-10-01T06:07:30.599Z,95.44
2022-10-01T06:08:30.608Z,95.44
2022-10-01T06:09:30.586Z,95.29
2022-10-01T06:10:30.623Z,95.54
2022-10-01T06:11:30.624Z,95.34
2022-10-01T06:12:30.582Z,95.03
2022-10-01T06:13:30.562Z,95.09
2022-10-01T06:14:30.581Z,95.44
2022-10-01T06:15:30.581Z,95.24
2022-10-01T06:16:30.652Z,95.40
2022-10-01T06:17:30.593Z,95.03
2022-10-01T06:18:30.546Z,95.24
2022-10-01T06:19:30.554Z,95.44
2022-10-01T06:20:30.548Z,96.12
2022-10-01T06:21:30.672Z,96.22
2022-10-01T06:22:30.536Z,96.16
2022-10-01T06:23:30.553Z,96.26
2022-10-01T06:24:30.526Z,95.86
2022-10-01T06:25:30.585Z,95.95
2022-10-01T06:26:30.560Z,95.65
2022-10-01T06:27:30.510Z,95.34
2022-10-01T06:28:30.569Z,95.54
2022-10-01T06:29:31.562Z,95.44
2022-10-01T06:30:30.503Z,95.50
2022-10-01T06:31:30.612Z,95.50
2022-10-01T06:32:34.787Z,95.40
2022-10-01T06:33:31.519Z,95.09
2022-10-01T06:34:30.504Z,95.91
2022-10-01T06:35:30.460Z,94.99
2022-10-01T06:36:30.461Z,95.09
2022-10-01T06:37:30.509Z,95.50
2022-10-01T06:38:30.476Z,95.20
2022-10-01T06:39:30.483Z,95.20
2022-10-01T06:40:30.446Z,95.29
2022-10-01T06:41:30.431Z,94.58
2022-10-01T06:42:30.451Z,94.89
2022-10-01T06:43:30.447Z,95.36
2022-10-01T06:44:30.459Z,95.40
2022-10-01T06:45:30.460Z,94.68
2022-10-01T06:46:30.421Z,94.84
2022-10-01T06:47:30.411Z,94.84
2022-10-01T06:48:30.429Z,95.05
2022-10-01T06:49:30.403Z,94.78
2022-10-01T06:50:30.428Z,94.68
2022-10-01T06:51:30.396Z,94.74
2022-10-01T06:52:30.431Z,94.74
2022-10-01T06:53:30.380Z,94.43
2022-10-01T06:54:30.380Z,94.43
2022-10-01T06:55:30.380Z,94.33
2022-10-01T06:56:30.458Z,94.43
2022-10-01T06:57:30.393Z,94.33
2022-10-01T06:58:30.363Z,94.54
2022-10-01T06:59:30.373Z,94.12
2022-10-01T07:00:30.352Z,94.33
2022-10-01T07:01:30.385Z,94.54
2022-10-01T07:02:30.477Z,94.74
2022-10-01T07:03:30.351Z,93.71
2022-10-01T07:04:30.350Z,94.54
2022-10-01T07:05:30.330Z,94.02
2022-10-01T07:06:30.339Z,94.43
2022-10-01T07:07:30.331Z,94.33
2022-10-01T07:08:30.367Z,94.33
2022-10-01T07:09:30.304Z,94.23
2022-10-01T07:10:30.307Z,93.92
2022-10-01T07:11:30.297Z,94.12
2022-10-01T07:12:30.300Z,94.49
2022-10-01T07:13:30.322Z,94.29
2022-10-01T07:14:30.307Z,94.43
2022-10-01T07:15:30.299Z,94.33
2022-10-01T07:16:30.277Z,93.57
2022-10-01T07:17:30.279Z,93.67
2022-10-01T07:18:30.279Z,93.98
2022-10-01T07:19:30.286Z,94.18
2022-10-01T07:20:30.250Z,93.47
2022-10-01T07:21:30.249Z,93.67
2022-10-01T07:22:30.244Z,93.47
2022-10-01T07:23:30.240Z,93.88
2022-10-01T07:24:30.243Z,93.57
2022-10-01T07:25:30.243Z,94.59
2022-10-01T07:26:30.213Z,94.18
2022-10-01T07:27:30.262Z,94.29
2022-10-01T07:28:30.250Z,93.98
2022-10-01T07:29:30.200Z,93.67
2022-10-01T07:30:30.213Z,94.59
2022-10-01T07:31:30.236Z,94.18
2022-10-01T07:32:30.178Z,94.39
2022-10-01T07:33:30.188Z,93.77
2022-10-01T07:34:30.181Z,93.98
2022-10-01T07:35:30.239Z,93.77
2022-10-01T07:36:30.162Z,93.57
2022-10-01T07:37:30.156Z,93.47
2022-10-01T07:38:30.178Z,93.98
2022-10-01T07:39:30.152Z,94.08
2022-10-01T07:40:30.200Z,93.88
2022-10-01T07:41:30.167Z,93.67
2022-10-01T07:42:30.149Z,93.57
2022-10-01T07:43:30.167Z,93.57
2022-10-01T07:44:30.146Z,93.77
2022-10-01T07:45:30.231Z,93.67
2022-10-01T07:46:34.495Z,93.67
2022-10-01T07:47:31.904Z,93.47
2022-10-01T07:48:30.136Z,93.88
2022-10-01T07:49:30.085Z,93.84
2022-10-01T07:50:30.096Z,93.67
2022-10-01T07:51:30.119Z,93.63
2022-10-01T07:52:30.122Z,93.52
2022-10-01T07:53:30.094Z,93.84
2022-10-01T07:54:30.066Z,93.52
2022-10-01T07:55:30.069Z,93.77
2022-10-01T07:56:30.061Z,93.57
2022-10-01T07:57:30.097Z,93.67
2022-10-01T07:58:30.070Z,93.43
2022-10-01T07:59:30.056Z,94.04
2022-10-01T08:00:30.040Z,94.34
2022-10-01T08:01:30.132Z,94.08
2022-10-01T08:02:30.158Z,94.34
2022-10-01T08:03:30.048Z,93.73
2022-10-01T08:04:30.087Z,94.34
2022-10-01T08:05:30.029Z,94.34
2022-10-01T08:06:30.013Z,94.14
2022-10-01T08:07:30.025Z,94.34
2022-10-01T08:08:30.003Z,94.70
2022-10-01T08:09:30.042Z,94.90
2022-10-01T08:10:30.048Z,94.85
2022-10-01T08:11:30.000Z,95.47
2022-10-01T08:12:30.004Z,94.70
2022-10-01T08:13:29.996Z,95.26
2022-10-01T08:14:29.987Z,95.37
2022-10-01T08:15:30.008Z,95.06
2022-10-01T08:16:30.046Z,94.65
2022-10-01T08:17:29.973Z,94.85
2022-10-01T08:18:29.956Z,95.57
2022-10-01T08:19:29.965Z,95.17
2022-10-01T08:20:29.969Z,95.26
2022-10-01T08:21:29.960Z,95.31
2022-10-01T08:22:29.945Z,95.10
2022-10-01T08:23:29.982Z,94.96
2022-10-01T08:24:29.927Z,94.90
2022-10-01T08:25:30.003Z,95.41
2022-10-01T08:26:29.959Z,94.24
2022-10-01T08:27:29.973Z,95.17
2022-10-01T08:28:30.070Z,94.96
2022-10-01T08:29:29.915Z,95.06
2022-10-01T08:30:29.907Z,95.17
2022-10-01T08:31:30.981Z,95.06
2022-10-01T08:32:29.915Z,94.85
2022-10-01T08:33:29.891Z,94.85
2022-10-01T08:34:29.887Z,94.65
2022-10-01T08:35:29.899Z,95.17
2022-10-01T08:36:29.881Z,95.17
2022-10-01T08:37:29.891Z,94.55
2022-10-01T08:38:29.885Z,95.26
2022-10-01T08:39:29.846Z,94.85
2022-10-01T08:40:30.867Z,94.96
2022-10-01T08:41:29.854Z,95.12
2022-10-01T08:42:29.955Z,95.32
2022-10-01T08:43:29.845Z,95.12
2022-10-01T08:44:30.513Z,95.32
2022-10-01T08:45:29.892Z,95.26
2022-10-01T08:46:29.838Z,94.92
2022-10-01T08:47:29.837Z,95.17
2022-10-01T08:48:29.805Z,95.02
2022-10-01T08:49:29.842Z,95.12
2022-10-01T08:50:29.809Z,95.12
2022-10-01T08:51:29.795Z,95.22
2022-10-01T08:52:29.791Z,94.81
2022-10-01T08:53:29.792Z,95.02
2022-10-01T08:54:30.785Z,95.22
2022-10-01T08:55:29.765Z,95.02
2022-10-01T08:56:29.818Z,95.02
2022-10-01T08:57:29.760Z,95.32
2022-10-01T08:58:29.761Z,94.92
2022-10-01T08:59:29.752Z,94.92
2022-10-01T09:00:29.769Z,94.92
2022-10-01T09:01:29.810Z,94.71
2022-10-01T09:02:29.747Z,94.60
2022-10-01T09:03:29.742Z,94.92
2022-10-01T09:04:29.795Z,94.30
2022-10-01T09:05:29.746Z,94.87
2022-10-01T09:06:29.734Z,94.92
2022-10-01T09:07:29.716Z,94.71
2022-10-01T09:08:29.710Z,95.02
2022-10-01T09:09:29.719Z,95.53
2022-10-01T09:10:29.695Z,95.22
2022-10-01T09:11:29.717Z,95.32
2022-10-01T09:12:29.688Z,95.02
2022-10-01T09:13:29.691Z,94.46
2022-10-01T09:14:29.672Z,94.51
2022-10-01T09:15:29.668Z,95.12
2022-10-01T09:16:29.734Z,95.38
2022-10-01T09:17:29.696Z,94.92
2022-10-01T09:18:29.665Z,94.87
2022-10-01T09:19:29.656Z,96.04
2022-10-01T09:20:29.650Z,96.14
2022-10-01T09:21:29.630Z,95.43
2022-10-01T09:22:29.657Z,94.92
2022-10-01T09:23:29.619Z,95.43
2022-10-01T09:24:29.632Z,95.18
2022-10-01T09:25:29.619Z,95.22
2022-10-01T09:26:29.611Z,95.07
2022-10-01T09:27:29.681Z,95.07
2022-10-01T09:28:29.631Z,94.67
2022-10-01T09:29:29.586Z,95.18
2022-10-01T09:30:29.606Z,94.87
2022-10-01T09:31:29.613Z,94.97
2022-10-01T09:32:29.576Z,93.95
2022-10-01T09:33:29.622Z,94.15
2022-10-01T09:34:29.578Z,94.46
2022-10-01T09:35:29.561Z,94.32
2022-10-01T09:36:29.570Z,94.62
2022-10-01T09:37:29.547Z,94.73
2022-10-01T09:38:29.623Z,93.95
2022-10-01T09:39:29.554Z,94.26
2022-10-01T09:40:29.554Z,94.42
2022-10-01T09:41:29.570Z,94.26
2022-10-01T09:42:29.547Z,94.01
2022-10-01T09:43:29.547Z,94.01
2022-10-01T09:44:29.508Z,94.06
2022-10-01T09:45:29.657Z,94.36
2022-10-01T09:46:29.507Z,94.21
2022-10-01T09:47:29.504Z,93.85
2022-10-01T09:48:29.616Z,94.42
2022-10-01T09:49:29.487Z,94.21
2022-10-01T09:50:29.526Z,94.42
2022-10-01T09:51:29.649Z,94.42
2022-10-01T09:52:29.495Z,94.01
2022-10-01T09:53:29.543Z,94.01
2022-10-01T09:54:29.451Z,94.21
2022-10-01T09:55:29.472Z,94.21
2022-10-01T09:56:29.433Z,94.21
2022-10-01T09:57:29.464Z,94.01
2022-10-01T09:58:29.420Z,93.91
2022-10-01T09:59:29.427Z,94.01
2022-10-01T10:00:29.425Z,94.11
2022-10-01T10:01:29.440Z,93.91
2022-10-01T10:02:29.564Z,93.86
2022-10-01T10:03:29.490Z,94.21
2022-10-01T10:04:29.378Z,94.32
2022-10-01T10:05:29.393Z,93.60
2022-10-01T10:06:29.402Z,93.29
2022-10-01T10:07:29.511Z,93.35
2022-10-01T10:08:29.392Z,93.35
2022-10-01T10:09:29.350Z,93.66
2022-10-01T10:10:29.435Z,93.86
2022-10-01T10:11:29.347Z,93.96
2022-10-01T10:12:29.334Z,93.66
2022-10-01T10:13:29.380Z,94.17
2022-10-01T10:14:29.386Z,94.27
2022-10-01T10:15:29.320Z,93.66
2022-10-01T10:16:29.312Z,93.76
2022-10-01T10:17:29.313Z,93.66
2022-10-01T10:18:29.324Z,94.07
2022-10-01T10:19:29.310Z,94.07
2022-10-01T10:20:29.291Z,93.35
2022-10-01T10:21:29.287Z,93.35
2022-10-01T10:22:29.283Z,93.25
2022-10-01T10:23:29.385Z,93.76
2022-10-01T10:24:29.322Z,93.25
2022-10-01T10:25:29.287Z,93.66
2022-10-01T10:26:29.329Z,93.35
2022-10-01T10:27:29.252Z,93.35
2022-10-01T10:28:29.354Z,93.66
2022-10-01T10:29:29.229Z,93.66
2022-10-01T10:30:29.255Z,93.66
2022-10-01T10:31:29.324Z,93.76
2022-10-01T10:32:29.209Z,94.33
2022-10-01T10:33:29.223Z,93.71
2022-10-01T10:34:29.227Z,93.31
2022-10-01T10:35:29.319Z,93.41
2022-10-01T10:36:29.243Z,93.31
2022-10-01T10:37:29.192Z,93.15
2022-10-01T10:38:29.210Z,93.00
2022-10-01T10:39:29.268Z,93.21
2022-10-01T10:40:29.862Z,93.31
2022-10-01T10:41:30.187Z,93.15
2022-10-01T10:42:29.166Z,93.10
2022-10-01T10:43:29.156Z,93.31
2022-10-01T10:44:29.176Z,93.00
2022-10-01T10:45:29.145Z,93.82
2022-10-01T10:46:29.281Z,93.82
2022-10-01T10:47:29.122Z,93.41
2022-10-01T10:48:29.163Z,93.41
2022-10-01T10:49:29.114Z,93.21
2022-10-01T10:50:29.110Z,93.00
2022-10-01T10:51:30.122Z,93.37
2022-10-01T10:52:29.101Z,93.31
2022-10-01T10:53:29.129Z,93.21
2022-10-01T10:54:29.092Z,94.08
2022-10-01T10:55:29.101Z,94.33
2022-10-01T10:56:29.082Z,93.88
2022-10-01T10:57:29.063Z,93.67
2022-10-01T10:58:29.086Z,93.47
2022-10-01T10:59:29.041Z,93.57
2022-10-01T11:00:29.054Z,93.47
2022-10-01T11:01:29.129Z,93.67
2022-10-01T11:02:29.058Z,94.14
2022-10-01T11:03:29.037Z,93.88
2022-10-01T11:04:29.099Z,94.29
2022-10-01T11:05:29.083Z,93.84
2022-10-01T11:06:29.004Z,93.52
2022-10-01T11:07:29.004Z,93.84
2022-10-01T11:08:28.997Z,94.04
2022-10-01T11:09:29.004Z,94.04
2022-10-01T11:10:28.974Z,93.93
2022-10-01T11:11:29.123Z,94.34
2022-10-01T11:12:28.954Z,94.55
2022-10-01T11:13:29.975Z,94.65
2022-10-01T11:14:28.960Z,94.04
2022-10-01T11:15:28.985Z,94.14
2022-10-01T11:16:28.938Z,94.34
2022-10-01T11:17:28.925Z,94.75
2022-10-01T11:18:28.932Z,94.79
2022-10-01T11:19:28.917Z,94.79
2022-10-01T11:20:28.933Z,95.16
2022-10-01T11:21:28.923Z,94.75
2022-10-01T11:22:28.927Z,94.95
2022-10-01T11:23:28.879Z,94.75
2022-10-01T11:24:28.888Z,94.75
2022-10-01T11:25:28.894Z,94.55
2022-10-01T11:26:29.001Z,94.65
2022-10-01T11:27:29.027Z,94.85
2022-10-01T11:28:28.902Z,95.26
2022-10-01T11:29:28.867Z,95.32
2022-10-01T11:30:28.853Z,94.85
2022-10-01T11:31:28.912Z,94.75
2022-10-01T11:32:28.853Z,94.85
2022-10-01T11:33:28.838Z,95.16
2022-10-01T11:34:28.831Z,94.85
2022-10-01T11:35:28.861Z,95.26
2022-10-01T11:36:28.889Z,94.95
2022-10-01T11:37:28.810Z,94.55
2022-10-01T11:38:28.779Z,95.06
2022-10-01T11:39:28.815Z,94.91
2022-10-01T11:40:28.813Z,94.71
2022-10-01T11:41:28.786Z,95.21
2022-10-01T11:42:28.851Z,94.71
2022-10-01T11:43:28.762Z,94.50
2022-10-01T11:44:28.767Z,95.21
2022-10-01T11:45:28.765Z,94.71
2022-10-01T11:46:28.827Z,95.21
2022-10-01T11:47:28.744Z,94.91
2022-10-01T11:48:28.753Z,94.30
2022-10-01T11:49:28.742Z,94.56
2022-10-01T11:50:28.728Z,94.05
2022-10-01T11:51:28.718Z,94.05
2022-10-01T11:52:28.702Z,94.26
2022-10-01T11:53:28.781Z,93.90
2022-10-01T11:54:28.694Z,94.11
2022-10-01T11:55:28.673Z,94.42
2022-10-01T11:56:28.677Z,94.11
2022-10-01T11:57:28.696Z,94.11
2022-10-01T11:58:28.719Z,93.70
2022-10-01T11:59:28.662Z,93.70
2022-10-01T12:00:28.638Z,93.96
2022-10-01T12:01:28.686Z,93.25
2022-10-01T12:02:28.631Z,93.66
2022-10-01T12:03:28.632Z,93.86
2022-10-01T12:04:28.661Z,93.55
2022-10-01T12:05:28.718Z,93.86
2022-10-01T12:06:33.615Z,93.35
2022-10-01T12:07:30.623Z,93.66
2022-10-01T12:08:28.620Z,93.86
2022-10-01T12:09:28.599Z,93.66
2022-10-01T12:10:28.622Z,93.96
2022-10-01T12:11:28.645Z,93.66
2022-10-01T12:12:28.561Z,93.82
2022-10-01T12:13:28.736Z,94.53
2022-10-01T12:14:28.574Z,94.08
2022-10-01T12:15:28.588Z,94.12
2022-10-01T12:16:28.673Z,94.23
2022-10-01T12:17:28.577Z,93.62
2022-10-01T12:18:28.860Z,93.51
2022-10-01T12:19:28.535Z,93.51
2022-10-01T12:20:28.520Z,93.82
2022-10-01T12:21:28.566Z,93.82
2022-10-01T12:22:28.527Z,93.92
2022-10-01T12:23:28.499Z,93.35
2022-10-01T12:24:28.502Z,94.07
2022-10-01T12:25:28.466Z,93.45
2022-10-01T12:26:28.469Z,93.55
2022-10-01T12:27:28.501Z,93.66
2022-10-01T12:28:28.485Z,93.66
2022-10-01T12:29:28.502Z,93.86
2022-10-01T12:30:28.489Z,94.47
2022-10-01T12:31:28.462Z,94.88
2022-10-01T12:32:28.420Z,94.57
2022-10-01T12:33:28.422Z,94.88
2022-10-01T12:34:28.452Z,94.57
2022-10-01T12:35:28.421Z,94.73
2022-10-01T12:36:28.401Z,94.93
2022-10-01T12:37:28.396Z,95.30
2022-10-01T12:38:28.415Z,94.28
2022-10-01T12:39:28.370Z,94.64
2022-10-01T12:40:28.410Z,93.83
2022-10-01T12:41:28.361Z,93.73
2022-10-01T12:42:28.344Z,93.68
2022-10-01T12:43:28.380Z,94.64
2022-10-01T12:44:28.348Z,94.70
2022-10-01T12:45:28.371Z,94.09
2022-10-01T12:46:28.364Z,94.25
2022-10-01T12:47:28.308Z,93.95
2022-10-01T12:48:28.365Z,93.60
2022-10-01T12:49:28.300Z,93.80
2022-10-01T12:50:28.289Z,93.09
2022-10-01T12:51:29.311Z,92.83
2022-10-01T12:52:28.295Z,92.93